createdAt,value
2019-05-05T00:01:00.210Z,5.90
2019-05-05T00:03:44.546Z,5.80
2019-05-05T00:06:14.710Z,5.80
2019-05-05T00:08:45.541Z,5.80
2019-05-05T00:11:35.008Z,5.70
2019-05-05T00:14:09.994Z,5.70
2019-05-05T00:16:50.362Z,5.70
2019-05-05T00:19:30.666Z,5.70
2019-05-05T00:21:49.986Z,5.60
2019-05-05T00:24:18.928Z,5.60
2019-05-05T00:26:47.633Z,5.60
2019-05-05T00:29:16.590Z,5.60
2019-05-05T00:31:45.472Z,5.50
2019-05-05T00:34:15.307Z,5.50
2019-05-05T00:36:44.704Z,5.50
2019-05-05T00:39:14.987Z,5.50
2019-05-05T00:41:44.916Z,5.40
2019-05-05T00:44:15.362Z,5.40
2019-05-05T00:47:02.390Z,5.40
2019-05-05T00:49:45.518Z,5.40
2019-05-05T00:52:04.932Z,5.40
2019-05-05T00:54:34.705Z,5.30
2019-05-05T00:57:04.431Z,5.30
2019-05-05T00:59:34.759Z,5.30
2019-05-05T01:02:24.945Z,5.20
2019-05-05T01:05:06.106Z,5.20
2019-05-05T01:07:35.180Z,5.20
2019-05-05T01:10:04.988Z,5.20
2019-05-05T01:12:34.866Z,5.20
2019-05-05T01:15:04.595Z,5.10
2019-05-05T01:17:34.531Z,5.10
2019-05-05T01:20:06.614Z,5.10
2019-05-05T01:22:34.583Z,5.00
2019-05-05T01:25:05.395Z,5.00
2019-05-05T01:27:34.800Z,5.00
2019-05-05T01:30:04.785Z,4.90
2019-05-05T01:32:37.346Z,4.90
2019-05-05T01:35:06.534Z,4.90
2019-05-05T01:37:46.440Z,4.80
2019-05-05T01:40:41.157Z,4.80
2019-05-05T01:43:10.170Z,4.80
2019-05-05T01:45:38.922Z,4.70
2019-05-05T01:48:07.858Z,4.70
2019-05-05T01:50:36.853Z,4.70
2019-05-05T01:53:05.613Z,4.70
2019-05-05T01:55:34.807Z,4.70
2019-05-05T01:58:04.729Z,4.70
2019-05-05T02:00:34.819Z,4.70
2019-05-05T02:03:04.530Z,4.70
2019-05-05T02:05:34.887Z,4.60
2019-05-05T02:08:05.015Z,4.60
2019-05-05T02:10:34.902Z,4.60
2019-05-05T02:13:04.753Z,4.60
2019-05-05T02:15:34.336Z,4.60
2019-05-05T02:18:04.554Z,4.50
2019-05-05T02:20:41.612Z,4.50
2019-05-05T02:23:12.329Z,4.40
2019-05-05T02:25:41.382Z,4.40
2019-05-05T02:28:11.191Z,4.40
2019-05-05T02:30:46.842Z,4.40
2019-05-05T02:33:15.838Z,4.40
2019-05-05T02:35:45.817Z,4.30
2019-05-05T02:38:15.664Z,4.30
2019-05-05T02:40:45.365Z,4.30
2019-05-05T02:43:15.272Z,4.20
2019-05-05T02:46:16.024Z,4.10
2019-05-05T02:48:46.977Z,4.10
2019-05-05T02:51:16.679Z,4.00
2019-05-05T02:53:48.429Z,4.00
2019-05-05T02:56:23.826Z,4.00
2019-05-05T02:58:55.565Z,3.90
2019-05-05T03:01:36.037Z,3.90
2019-05-05T03:04:05.588Z,3.90
2019-05-05T03:06:35.329Z,3.90
2019-05-05T03:09:05.459Z,3.90
2019-05-05T03:11:35.401Z,3.80
2019-05-05T03:14:07.492Z,3.80
2019-05-05T03:16:38.451Z,3.80
2019-05-05T03:19:08.830Z,3.80
2019-05-05T03:21:38.359Z,3.80
2019-05-05T03:24:08.268Z,3.70
2019-05-05T03:26:37.395Z,3.70
2019-05-05T03:29:08.592Z,3.70
2019-05-05T03:31:38.555Z,3.70
2019-05-05T03:34:07.583Z,3.70
2019-05-05T03:36:36.459Z,3.70
2019-05-05T03:39:06.902Z,3.70
2019-05-05T03:41:43.817Z,3.80
2019-05-05T03:44:24.126Z,3.90
2019-05-05T03:46:54.339Z,4.20
2019-05-05T03:49:24.368Z,4.50
2019-05-05T03:51:54.339Z,4.80
2019-05-05T03:54:23.947Z,5.10
2019-05-05T03:57:07.772Z,5.60
2019-05-05T03:59:39.095Z,6.10
2019-05-05T04:02:25.735Z,6.70
2019-05-05T04:04:55.575Z,7.30
2019-05-05T04:07:24.823Z,8.00
2019-05-05T04:09:54.348Z,8.40
2019-05-05T04:12:24.138Z,8.90
2019-05-05T04:14:54.570Z,9.30
2019-05-05T04:17:48.026Z,10.00
2019-05-05T04:20:45.009Z,10.70
2019-05-05T04:23:14.319Z,11.30
2019-05-05T04:25:43.952Z,12.10
2019-05-05T04:28:13.605Z,12.60
2019-05-05T04:30:44.491Z,13.10
2019-05-05T04:33:14.531Z,13.50
2019-05-05T04:35:44.449Z,13.90
2019-05-05T04:38:14.011Z,14.40
2019-05-05T04:40:43.570Z,14.80
2019-05-05T04:43:14.350Z,15.30
2019-05-05T04:45:45.620Z,15.70
2019-05-05T04:48:20.211Z,15.90
2019-05-05T04:50:59.163Z,16.20
2019-05-05T04:53:36.834Z,16.70
2019-05-05T04:56:05.718Z,17.10
2019-05-05T04:58:34.518Z,17.20
2019-05-05T05:01:04.693Z,17.70
2019-05-05T05:03:51.857Z,17.70
2019-05-05T05:06:34.090Z,18.10
2019-05-05T05:09:04.032Z,18.20
2019-05-05T05:11:33.655Z,18.50
2019-05-05T05:14:03.856Z,18.90
2019-05-05T05:16:35.691Z,19.40
2019-05-05T05:19:04.556Z,19.80
2019-05-05T05:21:34.237Z,20.10
2019-05-05T05:24:04.009Z,20.10
2019-05-05T05:26:33.578Z,19.70
2019-05-05T05:29:04.451Z,19.20
2019-05-05T05:31:33.723Z,19.20
2019-05-05T05:34:04.424Z,19.60
2019-05-05T05:36:33.842Z,19.70
2019-05-05T05:39:08.905Z,20.30
2019-05-05T05:41:44.511Z,20.60
2019-05-05T05:44:20.838Z,21.20
2019-05-05T05:46:54.994Z,21.40
2019-05-05T05:49:36.518Z,22.30
2019-05-05T05:52:13.534Z,22.10
2019-05-05T05:54:36.268Z,21.90
2019-05-05T05:57:05.242Z,22.10
2019-05-05T05:59:37.388Z,22.60
2019-05-05T06:02:11.733Z,22.30
2019-05-05T06:04:36.820Z,22.60
2019-05-05T06:07:06.326Z,22.60
2019-05-05T06:09:35.420Z,21.40
2019-05-05T06:12:04.999Z,21.30
2019-05-05T06:14:34.280Z,22.20
2019-05-05T06:17:04.249Z,22.90
2019-05-05T06:19:33.739Z,23.40
2019-05-05T06:22:03.545Z,22.90
2019-05-05T06:24:34.645Z,21.60
2019-05-05T06:27:03.871Z,21.00
2019-05-05T06:29:34.500Z,20.90
2019-05-05T06:32:04.088Z,20.70
2019-05-05T06:34:33.857Z,21.10
2019-05-05T06:37:04.260Z,22.00
2019-05-05T06:39:33.560Z,22.50
2019-05-05T06:42:11.212Z,22.60
2019-05-05T06:44:51.095Z,23.50
2019-05-05T06:47:23.645Z,24.40
2019-05-05T06:49:54.189Z,24.50
2019-05-05T06:52:24.842Z,24.90
2019-05-05T06:54:54.260Z,25.70
2019-05-05T06:57:24.072Z,25.80
2019-05-05T06:59:54.433Z,25.70
2019-05-05T07:02:23.768Z,26.00
2019-05-05T07:04:54.498Z,26.00
2019-05-05T07:07:23.674Z,25.50
2019-05-05T07:09:54.277Z,25.30
2019-05-05T07:12:24.179Z,25.70
2019-05-05T07:14:53.802Z,26.20
2019-05-05T07:17:24.534Z,26.50
2019-05-05T07:19:54.390Z,26.60
2019-05-05T07:22:24.402Z,27.20
2019-05-05T07:24:54.171Z,27.60
2019-05-05T07:27:26.545Z,28.00
2019-05-05T07:29:55.648Z,27.80
2019-05-05T07:32:24.713Z,28.10
2019-05-05T07:35:18.843Z,27.70
2019-05-05T07:37:47.891Z,27.80
2019-05-05T07:40:17.150Z,28.20
2019-05-05T07:42:46.171Z,27.40
2019-05-05T07:45:22.479Z,26.10
2019-05-05T07:47:47.353Z,25.70
2019-05-05T07:50:28.526Z,25.50
2019-05-05T07:52:46.690Z,26.10
2019-05-05T07:55:15.472Z,25.70
2019-05-05T07:57:44.218Z,25.30
2019-05-05T08:00:14.771Z,24.80
2019-05-05T08:02:43.976Z,25.20
2019-05-05T08:05:14.143Z,25.40
2019-05-05T08:07:44.699Z,25.40
2019-05-05T08:10:13.822Z,25.10
2019-05-05T08:12:43.648Z,25.90
2019-05-05T08:15:14.811Z,26.50
2019-05-05T08:18:01.422Z,26.10
2019-05-05T08:20:35.915Z,26.00
2019-05-05T08:23:07.963Z,25.50
2019-05-05T08:25:53.977Z,24.70
2019-05-05T08:28:26.747Z,24.80
2019-05-05T08:31:06.839Z,25.40
2019-05-05T08:33:35.509Z,26.90
2019-05-05T08:36:04.725Z,27.10
2019-05-05T08:38:34.733Z,26.70
2019-05-05T08:41:04.594Z,26.40
2019-05-05T08:43:34.831Z,23.50
2019-05-05T08:46:04.902Z,21.00
2019-05-05T08:48:34.207Z,19.80
2019-05-05T08:51:04.897Z,20.60
2019-05-05T08:53:44.019Z,22.70
2019-05-05T08:56:04.216Z,23.10
2019-05-05T08:58:34.453Z,21.70
2019-05-05T09:01:04.737Z,20.00
2019-05-05T09:03:33.702Z,19.10
2019-05-05T09:06:04.733Z,19.20
2019-05-05T09:08:34.742Z,20.70
2019-05-05T09:11:04.721Z,21.20
2019-05-05T09:13:34.149Z,22.00
2019-05-05T09:16:03.731Z,23.10
2019-05-05T09:18:33.963Z,25.80
2019-05-05T09:21:04.376Z,26.00
2019-05-05T09:23:35.248Z,27.80
2019-05-05T09:26:23.959Z,28.30
2019-05-05T09:29:15.030Z,28.10
2019-05-05T09:31:45.215Z,23.20
2019-05-05T09:34:14.634Z,22.10
2019-05-05T09:36:44.067Z,20.30
2019-05-05T09:39:13.806Z,21.00
2019-05-05T09:41:44.443Z,22.20
2019-05-05T09:44:13.593Z,23.20
2019-05-05T09:46:44.511Z,23.80
2019-05-05T09:49:14.115Z,22.90
2019-05-05T09:51:45.278Z,21.70
2019-05-05T09:54:16.773Z,20.60
2019-05-05T09:56:44.523Z,21.00
2019-05-05T09:59:13.597Z,21.70
2019-05-05T10:01:44.439Z,22.50
2019-05-05T10:04:13.821Z,21.80
2019-05-05T10:06:45.735Z,19.40
2019-05-05T10:09:13.890Z,17.90
2019-05-05T10:11:44.808Z,17.00
2019-05-05T10:14:14.394Z,16.70
2019-05-05T10:16:43.368Z,16.40
2019-05-05T10:19:13.901Z,16.30
2019-05-05T10:21:44.426Z,16.40
2019-05-05T10:24:28.499Z,16.50
2019-05-05T10:26:50.911Z,16.50
2019-05-05T10:29:19.811Z,16.30
2019-05-05T10:31:48.619Z,16.30
2019-05-05T10:34:18.431Z,16.30
2019-05-05T10:36:47.085Z,15.80
2019-05-05T10:39:26.895Z,15.50
2019-05-05T10:41:56.172Z,15.70
2019-05-05T10:44:24.969Z,16.30
2019-05-05T10:46:53.995Z,16.50
2019-05-05T10:49:24.429Z,16.60
2019-05-05T10:51:54.312Z,16.50
2019-05-05T10:54:23.749Z,16.40
2019-05-05T10:56:52.515Z,15.80
2019-05-05T10:59:23.668Z,15.60
2019-05-05T11:01:53.892Z,15.70
2019-05-05T11:04:24.357Z,15.20
2019-05-05T11:06:54.638Z,15.10
2019-05-05T11:09:24.513Z,15.10
2019-05-05T11:11:53.303Z,15.00
2019-05-05T11:14:22.267Z,15.00
2019-05-05T11:16:51.057Z,15.10
2019-05-05T11:19:19.902Z,15.40
2019-05-05T11:21:48.591Z,15.60
2019-05-05T11:24:17.295Z,15.70
2019-05-05T11:26:46.210Z,15.60
2019-05-05T11:29:15.327Z,15.70
2019-05-05T11:31:44.674Z,15.50
2019-05-05T11:34:26.139Z,15.60
2019-05-05T11:37:05.146Z,15.60
2019-05-05T11:39:34.066Z,15.50
2019-05-05T11:42:04.409Z,15.20
2019-05-05T11:44:33.609Z,14.90
2019-05-05T11:47:03.653Z,14.90
2019-05-05T11:49:33.758Z,15.20
2019-05-05T11:52:04.602Z,15.50
2019-05-05T11:54:33.439Z,15.70
2019-05-05T11:57:03.779Z,15.50
2019-05-05T11:59:33.018Z,15.50
2019-05-05T12:02:03.817Z,15.50
2019-05-05T12:04:32.368Z,15.80
2019-05-05T12:07:01.404Z,16.10
2019-05-05T12:09:39.908Z,16.10
2019-05-05T12:12:08.595Z,16.30
2019-05-05T12:14:37.363Z,16.00
2019-05-05T12:17:06.089Z,15.50
2019-05-05T12:19:34.896Z,15.30
2019-05-05T12:22:03.570Z,15.10
2019-05-05T12:24:35.322Z,14.90
2019-05-05T12:27:21.935Z,14.70
2019-05-05T12:29:57.764Z,14.70
2019-05-05T12:32:27.055Z,14.90
2019-05-05T12:34:55.721Z,15.20
2019-05-05T12:37:25.762Z,15.40
2019-05-05T12:39:54.858Z,15.30
2019-05-05T12:42:24.211Z,15.40
2019-05-05T12:44:58.936Z,15.40
2019-05-05T12:47:46.822Z,15.50
2019-05-05T12:50:15.895Z,15.60
2019-05-05T12:52:44.558Z,15.80
2019-05-05T12:55:14.278Z,15.80
2019-05-05T12:57:43.590Z,15.50
2019-05-05T13:00:14.648Z,15.50
2019-05-05T13:02:44.186Z,15.50
2019-05-05T13:05:14.453Z,15.50
2019-05-05T13:07:44.157Z,15.40
2019-05-05T13:10:16.067Z,15.30
2019-05-05T13:12:44.735Z,15.20
2019-05-05T13:15:14.386Z,15.40
2019-05-05T13:17:43.791Z,15.70
2019-05-05T13:20:24.576Z,15.80
2019-05-05T13:23:04.708Z,15.50
2019-05-05T13:25:58.963Z,15.30
2019-05-05T13:28:26.102Z,14.80
2019-05-05T13:30:55.003Z,14.50
2019-05-05T13:33:24.672Z,14.50
2019-05-05T13:35:53.852Z,14.40
2019-05-05T13:38:23.935Z,14.40
2019-05-05T13:40:54.418Z,14.40
2019-05-05T13:43:24.210Z,14.50
2019-05-05T13:46:07.926Z,14.70
2019-05-05T13:48:37.487Z,14.80
2019-05-05T13:51:06.930Z,14.70
2019-05-05T13:53:35.622Z,14.60
2019-05-05T13:56:11.914Z,14.70
2019-05-05T13:58:36.622Z,14.80
2019-05-05T14:01:05.538Z,14.90
2019-05-05T14:03:34.536Z,15.00
2019-05-05T14:06:04.742Z,15.10
2019-05-05T14:08:36.257Z,15.20
2019-05-05T14:11:04.318Z,15.50
2019-05-05T14:13:34.196Z,15.50
2019-05-05T14:16:03.901Z,15.40
2019-05-05T14:18:32.815Z,15.10
2019-05-05T14:21:02.010Z,15.40
2019-05-05T14:23:34.420Z,15.70
2019-05-05T14:26:03.869Z,15.80
2019-05-05T14:28:34.043Z,15.60
2019-05-05T14:31:14.827Z,15.70
2019-05-05T14:33:58.570Z,15.90
2019-05-05T14:36:49.695Z,15.50
2019-05-05T14:39:19.538Z,15.40
2019-05-05T14:41:48.210Z,15.60
2019-05-05T14:44:17.243Z,15.70
2019-05-05T14:46:46.011Z,15.70
2019-05-05T14:49:14.713Z,15.50
2019-05-05T14:51:44.669Z,15.50
2019-05-05T14:54:14.881Z,15.60
2019-05-05T14:56:44.177Z,15.40
2019-05-05T14:59:14.256Z,15.40
2019-05-05T15:01:44.688Z,15.10
2019-05-05T15:04:15.339Z,14.80
2019-05-05T15:07:09.038Z,14.70
2019-05-05T15:09:50.838Z,14.60
2019-05-05T15:12:24.119Z,14.40
2019-05-05T15:14:54.654Z,14.40
2019-05-05T15:17:24.659Z,14.30
2019-05-05T15:19:54.104Z,14.40
2019-05-05T15:22:23.893Z,14.50
2019-05-05T15:24:53.640Z,14.50
2019-05-05T15:27:24.242Z,14.50
2019-05-05T15:29:54.269Z,14.40
2019-05-05T15:32:24.059Z,14.40
2019-05-05T15:34:54.576Z,14.30
2019-05-05T15:37:23.808Z,14.20
2019-05-05T15:39:53.605Z,14.10
2019-05-05T15:42:22.742Z,14.10
2019-05-05T15:44:51.430Z,14.10
2019-05-05T15:47:20.162Z,14.00
2019-05-05T15:49:49.239Z,14.00
2019-05-05T15:52:20.177Z,14.10
2019-05-05T15:54:48.582Z,14.10
2019-05-05T15:57:18.268Z,14.10
2019-05-05T15:59:47.386Z,14.20
2019-05-05T16:02:16.093Z,14.20
2019-05-05T16:04:45.358Z,14.20
2019-05-05T16:07:14.300Z,14.30
2019-05-05T16:09:46.502Z,14.10
2019-05-05T16:12:14.400Z,14.10
2019-05-05T16:14:54.326Z,14.10
2019-05-05T16:17:33.437Z,14.20
2019-05-05T16:20:06.307Z,14.30
2019-05-05T16:22:54.170Z,14.30
2019-05-05T16:25:23.024Z,14.40
2019-05-05T16:27:52.101Z,14.30
2019-05-05T16:30:23.436Z,14.30
2019-05-05T16:32:54.969Z,14.20
2019-05-05T16:35:23.760Z,14.20
2019-05-05T16:37:52.606Z,14.20
2019-05-05T16:40:23.240Z,14.10
2019-05-05T16:42:51.866Z,14.10
2019-05-05T16:45:21.075Z,14.00
2019-05-05T16:47:49.772Z,13.80
2019-05-05T16:50:20.688Z,13.70
2019-05-05T16:53:00.764Z,13.70
2019-05-05T16:55:34.550Z,13.70
2019-05-05T16:58:06.899Z,13.80
2019-05-05T17:00:37.170Z,13.70
2019-05-05T17:03:05.897Z,13.70
2019-05-05T17:05:35.311Z,13.70
2019-05-05T17:08:05.813Z,13.60
2019-05-05T17:10:34.642Z,13.60
2019-05-05T17:13:15.402Z,13.60
2019-05-05T17:15:59.174Z,13.60
2019-05-05T17:18:45.757Z,13.50
2019-05-05T17:21:18.039Z,13.40
2019-05-05T17:23:46.725Z,13.40
2019-05-05T17:26:15.768Z,13.40
2019-05-05T17:28:44.485Z,13.30
2019-05-05T17:31:13.386Z,13.20
2019-05-05T17:33:44.072Z,13.10
2019-05-05T17:36:14.020Z,13.00
2019-05-05T17:38:43.736Z,12.90
2019-05-05T17:41:34.129Z,12.80
2019-05-05T17:44:09.873Z,12.70
2019-05-05T17:46:44.513Z,12.60
2019-05-05T17:49:26.978Z,12.50
2019-05-05T17:52:18.775Z,12.40
2019-05-05T17:54:53.956Z,12.30
2019-05-05T17:57:23.672Z,12.20
2019-05-05T17:59:53.590Z,12.10
2019-05-05T18:02:23.698Z,12.00
2019-05-05T18:04:54.104Z,11.90
2019-05-05T18:07:32.139Z,11.90
2019-05-05T18:10:07.719Z,11.80
2019-05-05T18:12:51.495Z,11.70
2019-05-05T18:15:37.742Z,11.70
2019-05-05T18:18:06.507Z,11.60
2019-05-05T18:20:35.231Z,11.60
2019-05-05T18:23:03.911Z,11.50
2019-05-05T18:25:34.215Z,11.50
2019-05-05T18:28:16.251Z,11.40
2019-05-05T18:30:33.588Z,11.30
2019-05-05T18:33:04.073Z,11.20
2019-05-05T18:35:33.929Z,11.20
2019-05-05T18:38:04.064Z,11.20
2019-05-05T18:40:33.704Z,11.10
2019-05-05T18:43:05.619Z,11.10
2019-05-05T18:45:35.560Z,11.00
2019-05-05T18:48:04.591Z,10.90
2019-05-05T18:50:33.988Z,10.80
2019-05-05T18:53:04.634Z,10.80
2019-05-05T18:55:33.924Z,10.70
2019-05-05T18:58:04.975Z,10.70
2019-05-05T19:01:01.642Z,10.70
2019-05-05T19:03:34.471Z,10.60
2019-05-05T19:06:24.042Z,10.60
2019-05-05T19:08:56.957Z,10.70
2019-05-05T19:11:24.962Z,10.60
2019-05-05T19:13:54.161Z,10.60
2019-05-05T19:16:23.762Z,10.60
2019-05-05T19:18:55.409Z,10.60
2019-05-05T19:21:30.666Z,10.60
2019-05-05T19:23:59.566Z,10.60
2019-05-05T19:26:28.347Z,10.50
2019-05-05T19:28:57.682Z,10.50
2019-05-05T19:31:26.497Z,10.40
2019-05-05T19:33:55.866Z,10.30
2019-05-05T19:36:27.385Z,10.30
2019-05-05T19:38:55.381Z,10.20
2019-05-05T19:41:24.133Z,10.20
2019-05-05T19:43:54.731Z,10.10
2019-05-05T19:46:44.014Z,10.00
2019-05-05T19:49:17.226Z,9.90
2019-05-05T19:51:46.668Z,9.90
2019-05-05T19:54:15.758Z,9.80
2019-05-05T19:56:44.915Z,9.70
2019-05-05T19:59:13.897Z,9.70
2019-05-05T20:01:44.740Z,9.60
2019-05-05T20:04:14.621Z,9.60
2019-05-05T20:06:44.416Z,9.50
2019-05-05T20:09:14.208Z,9.50
2019-05-05T20:11:43.817Z,9.40
2019-05-05T20:14:15.162Z,9.30
2019-05-05T20:17:04.237Z,9.30
2019-05-05T20:19:37.062Z,9.30
2019-05-05T20:22:05.915Z,9.20
2019-05-05T20:24:34.884Z,9.20
2019-05-05T20:27:04.504Z,9.10
2019-05-05T20:29:36.763Z,9.10
2019-05-05T20:32:04.396Z,9.00
2019-05-05T20:34:44.470Z,9.00
2019-05-05T20:37:15.394Z,9.00
2019-05-05T20:39:44.245Z,9.00
2019-05-05T20:42:14.873Z,9.10
2019-05-05T20:44:43.848Z,9.10
2019-05-05T20:47:12.650Z,9.10
2019-05-05T20:49:41.300Z,9.20
2019-05-05T20:52:10.246Z,9.20
2019-05-05T20:54:38.920Z,9.30
2019-05-05T20:57:07.611Z,9.30
2019-05-05T20:59:36.799Z,9.30
2019-05-05T21:02:05.479Z,9.40
2019-05-05T21:04:34.649Z,9.40
2019-05-05T21:07:04.507Z,9.50
2019-05-05T21:09:34.474Z,9.50
2019-05-05T21:12:04.705Z,9.60
2019-05-05T21:14:37.237Z,9.60
2019-05-05T21:17:05.119Z,9.60
2019-05-05T21:19:34.618Z,9.60
2019-05-05T21:22:22.563Z,9.60
2019-05-05T21:24:51.595Z,9.60
2019-05-05T21:27:21.990Z,9.70
2019-05-05T21:29:50.686Z,9.70
2019-05-05T21:32:19.352Z,9.70
2019-05-05T21:34:48.037Z,9.70
2019-05-05T21:37:16.762Z,9.70
2019-05-05T21:39:45.686Z,9.80
2019-05-05T21:42:14.343Z,9.70
2019-05-05T21:44:44.219Z,9.70
2019-05-05T21:47:14.167Z,9.60
2019-05-05T21:49:43.047Z,9.60
2019-05-05T21:52:34.606Z,9.50
2019-05-05T21:55:28.710Z,9.50
2019-05-05T21:58:07.827Z,9.40
2019-05-05T22:00:54.788Z,9.30
2019-05-05T22:03:30.671Z,9.20
2019-05-05T22:05:59.470Z,9.00
2019-05-05T22:08:28.142Z,9.00
2019-05-05T22:10:57.085Z,8.80
2019-05-05T22:13:25.968Z,8.70
2019-05-05T22:15:54.714Z,8.70
2019-05-05T22:18:24.407Z,8.60
2019-05-05T22:20:59.595Z,8.60
2019-05-05T22:23:28.266Z,8.50
2019-05-05T22:25:57.035Z,8.40
2019-05-05T22:28:26.546Z,8.40
2019-05-05T22:30:55.592Z,8.30
2019-05-05T22:33:24.791Z,8.30
2019-05-05T22:35:54.842Z,8.20
2019-05-05T22:38:24.552Z,8.20
2019-05-05T22:40:54.565Z,8.10
2019-05-05T22:43:23.904Z,8.10
2019-05-05T22:45:54.151Z,8.00
2019-05-05T22:48:24.003Z,8.00
2019-05-05T22:50:54.495Z,7.90
2019-05-05T22:53:24.042Z,7.90
2019-05-05T22:55:53.257Z,7.90
2019-05-05T22:58:23.887Z,7.80
2019-05-05T23:00:54.678Z,7.80
2019-05-05T23:03:35.175Z,7.70
2019-05-05T23:06:10.351Z,7.70
2019-05-05T23:08:39.016Z,7.60
2019-05-05T23:11:08.080Z,7.60
2019-05-05T23:13:36.960Z,7.60
2019-05-05T23:16:14.631Z,7.50
2019-05-05T23:18:44.270Z,7.50
2019-05-05T23:21:26.495Z,7.50
2019-05-05T23:24:14.307Z,7.40
2019-05-05T23:26:43.958Z,7.30
2019-05-05T23:29:12.789Z,7.30
2019-05-05T23:31:41.538Z,7.30
2019-05-05T23:34:10.394Z,7.20
2019-05-05T23:36:39.255Z,7.20
2019-05-05T23:39:08.376Z,7.10
2019-05-05T23:41:37.675Z,7.10
2019-05-05T23:44:06.462Z,7.10
2019-05-05T23:46:35.408Z,7.10
2019-05-05T23:49:04.645Z,7.00
2019-05-05T23:51:34.682Z,7.00
2019-05-05T23:54:04.303Z,7.00
2019-05-05T23:56:34.959Z,7.00
2019-05-05T23:59:04.343Z,7.00
